Time;durP1;ratioP1;P1;durP2;ratioP2;P2;SDS_P1;SDS_P2;PMS_P1;PMS_P2;Temp;Humidity;BMP_temperature;BMP_pressure;BME280_temperature;BME280_humidity;BME280_pressure;Samples;Min_cycle;Max_cycle;Signal;HPM_P1;HPM_P2
2023/07/31 00:01:17;;;;;;;2.80;1.83;;;;;;;;;;4988851;28;20212;-73
2023/07/31 00:03:42;;;;;;;3.05;2.10;;;;;;;;;;4989922;28;20194;-73
2023/07/31 00:06:08;;;;;;;3.20;2.17;;;;;;;;;;5010186;28;20197;-72
2023/07/31 00:08:33;;;;;;;2.45;1.80;;;;;;;;;;5007529;28;20825;-73
2023/07/31 00:10:58;;;;;;;2.88;2.00;;;;;;;;;;4981889;28;20186;-73
2023/07/31 00:13:24;;;;;;;3.42;2.13;;;;;;;;;;4992299;28;20265;-74
2023/07/31 00:15:49;;;;;;;2.20;1.80;;;;;;;;;;5009308;28;20567;-73
2023/07/31 00:18:15;;;;;;;3.03;2.20;;;;;;;;;;5011705;28;20210;-73
2023/07/31 00:20:41;;;;;;;3.45;1.98;;;;;;;;;;4992615;28;20214;-74
2023/07/31 00:23:06;;;;;;;3.15;1.67;;;;;;;;;;5009567;28;20193;-74
2023/07/31 00:25:31;;;;;;;2.15;1.80;;;;;;;;;;4992825;28;20191;-72
2023/07/31 00:27:57;;;;;;;2.90;2.10;;;;;;;;;;4997397;28;20281;-72
2023/07/31 00:30:22;;;;;;;4.13;1.73;;;;;;;;;;5006665;28;20226;-72
2023/07/31 00:32:47;;;;;;;3.38;2.28;;;;;;;;;;5000052;28;20195;-73
2023/07/31 00:35:13;;;;;;;2.90;2.08;;;;;;;;;;5005006;28;20241;-74
2023/07/31 00:37:38;;;;;;;3.33;2.13;;;;;;;;;;5005236;28;20695;-71
2023/07/31 00:40:04;;;;;;;2.58;1.77;;;;;;;;;;5004163;28;20203;-73
2023/07/31 00:42:30;;;;;;;3.05;1.90;;;;;;;;;;4992997;28;20685;-77
2023/07/31 00:44:55;;;;;;;5.88;2.60;;;;;;;;;;5010405;28;20197;-75
2023/07/31 00:47:20;;;;;;;2.83;1.80;;;;;;;;;;4988799;28;20194;-74
2023/07/31 00:49:46;;;;;;;2.40;2.20;;;;;;;;;;4979643;28;20191;-76
2023/07/31 00:52:12;;;;;;;2.63;2.08;;;;;;;;;;5000569;28;20295;-74
2023/07/31 00:54:37;;;;;;;4.32;1.77;;;;;;;;;;5008707;28;20191;-73
2023/07/31 00:57:03;;;;;;;3.90;1.98;;;;;;;;;;5013749;28;20317;-73
2023/07/31 00:59:29;;;;;;;3.60;1.75;;;;;;;;;;5004435;28;20198;-73
2023/07/31 01:01:54;;;;;;;1.70;1.45;;;;;;;;;;4995542;28;20222;-72
2023/07/31 01:04:20;;;;;;;1.92;1.55;;;;;;;;;;5009617;28;20550;-72
2023/07/31 01:06:59;;;;;;;2.47;1.33;;;;;;;;;;5011627;28;20217;-71
2023/07/31 01:09:40;;;;;;;1.80;1.40;;;;;;;;;;5008134;28;20221;-72
2023/07/31 01:12:07;;;;;;;1.83;1.33;;;;;;;;;;5002280;28;20581;-74
2023/07/31 01:14:33;;;;;;;2.00;1.10;;;;;;;;;;5008811;28;20441;-74
2023/07/31 01:16:58;;;;;;;1.83;1.27;;;;;;;;;;5005689;28;20301;-74
2023/07/31 01:19:26;;;;;;;1.40;1.30;;;;;;;;;;5007134;28;20199;-74
2023/07/31 01:22:17;;;;;;;2.70;1.67;;;;;;;;;;4998069;28;20211;-73
2023/07/31 01:25:10;;;;;;;3.47;1.38;;;;;;;;;;4998809;28;20272;-72
2023/07/31 01:27:47;;;;;;;1.90;1.40;;;;;;;;;;5006033;28;20234;-73
2023/07/31 01:30:16;;;;;;;2.67;1.67;;;;;;;;;;5009556;28;20579;-72
2023/07/31 01:32:45;;;;;;;1.60;1.50;;;;;;;;;;5009873;28;20246;-72
2023/07/31 01:35:10;;;;;;;1.75;1.65;;;;;;;;;;5010289;28;20603;-73
2023/07/31 01:37:36;;;;;;;2.03;1.73;;;;;;;;;;5016031;28;20249;-73
2023/07/31 01:40:02;;;;;;;2.33;1.70;;;;;;;;;;4976798;28;20189;-72
2023/07/31 01:42:27;;;;;;;2.72;1.60;;;;;;;;;;4996107;28;20230;-72
2023/07/31 01:44:52;;;;;;;1.35;1.25;;;;;;;;;;5009781;28;20203;-73
2023/07/31 01:47:18;;;;;;;2.35;1.40;;;;;;;;;;5000027;28;20187;-73
2023/07/31 01:49:43;;;;;;;2.08;1.25;;;;;;;;;;5003739;28;20188;-74
2023/07/31 01:52:08;;;;;;;2.40;1.20;;;;;;;;;;4988284;28;20679;-72
2023/07/31 01:54:34;;;;;;;1.08;0.82;;;;;;;;;;5022841;28;20221;-72
2023/07/31 01:56:59;;;;;;;1.30;1.00;;;;;;;;;;5012504;28;20219;-71
2023/07/31 01:59:25;;;;;;;0.70;0.70;;;;;;;;;;5004868;28;20195;-75
2023/07/31 02:01:50;;;;;;;0.80;0.80;;;;;;;;;;5006796;28;20288;-73
2023/07/31 02:04:15;;;;;;;1.23;0.90;;;;;;;;;;5016411;28;20194;-72
2023/07/31 02:06:41;;;;;;;1.98;0.70;;;;;;;;;;5010955;28;20261;-72
2023/07/31 02:09:06;;;;;;;0.70;0.50;;;;;;;;;;5000891;28;20197;-75
2023/07/31 02:11:31;;;;;;;0.70;0.70;;;;;;;;;;4994299;28;20554;-78
2023/07/31 02:13:57;;;;;;;1.13;0.68;;;;;;;;;;4980415;28;20743;-76
2023/07/31 02:16:22;;;;;;;2.33;0.95;;;;;;;;;;5012489;28;20193;-73
2023/07/31 02:18:47;;;;;;;1.38;0.90;;;;;;;;;;5012581;28;20217;-74
2023/07/31 02:21:13;;;;;;;2.55;0.93;;;;;;;;;;4998530;28;20211;-73
2023/07/31 02:23:38;;;;;;;0.80;0.70;;;;;;;;;;5004715;28;20256;-73
2023/07/31 02:26:04;;;;;;;3.20;1.10;;;;;;;;;;5002640;28;20207;-75
2023/07/31 02:28:29;;;;;;;1.30;0.95;;;;;;;;;;4993698;28;20281;-73
2023/07/31 02:30:54;;;;;;;1.75;1.00;;;;;;;;;;4993850;28;20729;-76
2023/07/31 02:33:20;;;;;;;4.20;1.15;;;;;;;;;;4964874;28;20752;-74
2023/07/31 02:35:45;;;;;;;1.27;0.85;;;;;;;;;;5001691;28;20198;-73
2023/07/31 02:38:11;;;;;;;1.20;1.10;;;;;;;;;;4974887;28;20187;-75
2023/07/31 02:40:36;;;;;;;1.77;1.00;;;;;;;;;;5001692;28;20184;-74
2023/07/31 02:43:02;;;;;;;1.75;1.13;;;;;;;;;;5012056;28;20221;-73
2023/07/31 02:45:27;;;;;;;1.65;0.88;;;;;;;;;;5009754;28;20197;-74
2023/07/31 02:47:52;;;;;;;1.77;0.90;;;;;;;;;;4978523;28;20180;-74
2023/07/31 02:50:18;;;;;;;3.00;1.02;;;;;;;;;;4976083;28;20218;-75
2023/07/31 02:52:43;;;;;;;3.95;1.17;;;;;;;;;;5005890;28;20214;-74
2023/07/31 02:55:08;;;;;;;1.42;1.13;;;;;;;;;;5001554;28;20242;-75
2023/07/31 02:57:34;;;;;;;2.40;1.30;;;;;;;;;;4996083;28;20248;-75
2023/07/31 02:59:59;;;;;;;5.53;1.60;;;;;;;;;;4997487;28;20199;-75
2023/07/31 03:02:25;;;;;;;3.42;1.70;;;;;;;;;;4997389;28;20219;-74
2023/07/31 03:04:50;;;;;;;3.35;1.65;;;;;;;;;;5010586;28;20666;-74
2023/07/31 03:07:15;;;;;;;3.08;2.00;;;;;;;;;;5001791;28;20273;-75
2023/07/31 03:09:41;;;;;;;4.57;1.98;;;;;;;;;;5001030;28;20218;-75
2023/07/31 03:12:07;;;;;;;3.55;2.22;;;;;;;;;;5009416;28;20194;-73
2023/07/31 03:14:33;;;;;;;5.68;2.10;;;;;;;;;;5010831;28;20186;-72
2023/07/31 03:16:59;;;;;;;6.57;2.38;;;;;;;;;;4995542;28;20730;-75
2023/07/31 03:19:24;;;;;;;4.57;2.22;;;;;;;;;;5013017;28;20336;-74
2023/07/31 03:21:50;;;;;;;5.22;2.45;;;;;;;;;;4985450;28;20624;-73
2023/07/31 03:24:15;;;;;;;3.40;2.30;;;;;;;;;;5006153;28;20195;-71
2023/07/31 03:26:41;;;;;;;4.07;2.33;;;;;;;;;;5014935;28;20350;-72
2023/07/31 03:29:07;;;;;;;6.88;2.67;;;;;;;;;;4942730;28;1048909;-72
2023/07/31 03:31:33;;;;;;;5.35;2.70;;;;;;;;;;5009364;28;20225;-74
2023/07/31 03:33:58;;;;;;;5.25;2.63;;;;;;;;;;5002178;28;20225;-70
2023/07/31 03:36:24;;;;;;;6.10;2.75;;;;;;;;;;5007700;28;20206;-73
2023/07/31 03:38:50;;;;;;;6.93;2.83;;;;;;;;;;5015265;28;20200;-73
2023/07/31 03:41:16;;;;;;;5.65;2.55;;;;;;;;;;5010113;28;20280;-72
2023/07/31 03:43:41;;;;;;;5.78;3.20;;;;;;;;;;4990662;28;20274;-71
2023/07/31 03:46:06;;;;;;;5.75;3.03;;;;;;;;;;5004926;28;20190;-71
2023/07/31 03:48:32;;;;;;;5.68;3.00;;;;;;;;;;5003668;28;20206;-72
2023/07/31 03:50:57;;;;;;;4.95;3.28;;;;;;;;;;5006863;28;20194;-71
2023/07/31 03:53:23;;;;;;;8.02;3.60;;;;;;;;;;4991172;28;20216;-71
2023/07/31 03:55:48;;;;;;;10.18;4.20;;;;;;;;;;5001068;28;20191;-72
2023/07/31 03:58:13;;;;;;;9.38;4.22;;;;;;;;;;5000611;28;20228;-72
2023/07/31 04:00:40;;;;;;;8.32;4.47;;;;;;;;;;5005781;28;20192;-71
2023/07/31 04:03:05;;;;;;;11.23;5.20;;;;;;;;;;5003636;28;20187;-70
2023/07/31 04:05:32;;;;;;;16.25;6.68;;;;;;;;;;5002982;28;20559;-72
2023/07/31 04:07:58;;;;;;;24.00;7.88;;;;;;;;;;4983594;28;20191;-71
2023/07/31 04:10:23;;;;;;;19.63;8.10;;;;;;;;;;5002431;28;20248;-71
2023/07/31 04:12:49;;;;;;;20.13;7.57;;;;;;;;;;5005091;28;20191;-71
2023/07/31 04:15:14;;;;;;;19.95;8.35;;;;;;;;;;5011121;28;20194;-74
2023/07/31 04:17:40;;;;;;;27.60;9.48;;;;;;;;;;4992290;28;20218;-70
2023/07/31 04:20:06;;;;;;;29.20;10.02;;;;;;;;;;5002946;28;20186;-70
2023/07/31 04:22:31;;;;;;;23.98;9.27;;;;;;;;;;4991594;28;20813;-71
2023/07/31 04:24:56;;;;;;;26.80;9.82;;;;;;;;;;5011211;28;20281;-72
2023/07/31 04:27:22;;;;;;;21.42;9.43;;;;;;;;;;5003987;28;20205;-71
2023/07/31 04:29:47;;;;;;;33.80;11.73;;;;;;;;;;5001570;28;20673;-72
2023/07/31 04:32:13;;;;;;;30.05;10.27;;;;;;;;;;4998207;28;20670;-73
2023/07/31 04:34:38;;;;;;;24.80;9.70;;;;;;;;;;4993218;28;20187;-73
2023/07/31 04:37:03;;;;;;;27.73;9.70;;;;;;;;;;4988976;28;20189;-71
2023/07/31 04:39:29;;;;;;;26.77;10.38;;;;;;;;;;5004179;28;20198;-72
2023/07/31 04:41:54;;;;;;;27.73;10.05;;;;;;;;;;5001462;28;20261;-70
2023/07/31 04:44:19;;;;;;;28.10;11.52;;;;;;;;;;5009389;28;20542;-75
2023/07/31 04:46:45;;;;;;;31.58;11.07;;;;;;;;;;5007686;28;20210;-71
2023/07/31 04:49:11;;;;;;;32.53;10.68;;;;;;;;;;4995919;28;20189;-71
2023/07/31 04:51:36;;;;;;;26.80;11.27;;;;;;;;;;5009618;28;20607;-75
2023/07/31 04:54:02;;;;;;;31.60;11.68;;;;;;;;;;4986499;28;20194;-71
2023/07/31 04:56:27;;;;;;;28.27;11.02;;;;;;;;;;5009603;28;20539;-71
2023/07/31 04:58:53;;;;;;;30.15;11.13;;;;;;;;;;5008322;28;20222;-71
2023/07/31 05:01:18;;;;;;;37.17;11.40;;;;;;;;;;5009302;28;20257;-71
2023/07/31 05:03:43;;;;;;;32.63;11.52;;;;;;;;;;4999186;28;20198;-71
2023/07/31 05:06:09;;;;;;;26.17;11.15;;;;;;;;;;5002605;28;20244;-71
2023/07/31 05:08:34;;;;;;;29.45;11.68;;;;;;;;;;4999284;28;20206;-72
2023/07/31 05:10:59;;;;;;;35.00;11.65;;;;;;;;;;4995253;28;20186;-70
2023/07/31 05:13:25;;;;;;;35.90;11.57;;;;;;;;;;5009135;28;20326;-70
2023/07/31 05:15:50;;;;;;;39.20;11.60;;;;;;;;;;5003489;28;20217;-71
2023/07/31 05:18:15;;;;;;;29.85;11.75;;;;;;;;;;5001655;28;20223;-72
2023/07/31 05:20:41;;;;;;;34.28;11.65;;;;;;;;;;4991475;28;20571;-72
2023/07/31 05:23:06;;;;;;;29.45;11.05;;;;;;;;;;4996434;28;20187;-72
2023/07/31 05:25:32;;;;;;;34.78;11.25;;;;;;;;;;4975467;28;20548;-73
2023/07/31 05:27:57;;;;;;;30.08;10.00;;;;;;;;;;5006864;28;20223;-72
2023/07/31 05:30:23;;;;;;;31.63;10.77;;;;;;;;;;5004493;28;20191;-77
2023/07/31 05:32:48;;;;;;;30.30;10.02;;;;;;;;;;4991947;28;20623;-72
2023/07/31 05:35:13;;;;;;;33.80;10.70;;;;;;;;;;5009343;28;20598;-72
2023/07/31 05:37:39;;;;;;;33.72;10.30;;;;;;;;;;5007127;28;20196;-72
2023/07/31 05:40:05;;;;;;;27.10;10.02;;;;;;;;;;5000885;28;20267;-73
2023/07/31 05:42:30;;;;;;;26.13;10.10;;;;;;;;;;5004630;28;20263;-72
2023/07/31 05:44:55;;;;;;;32.03;10.75;;;;;;;;;;5004466;28;20195;-74
2023/07/31 05:47:21;;;;;;;28.08;9.95;;;;;;;;;;4999139;28;20199;-72
2023/07/31 05:49:46;;;;;;;26.52;9.57;;;;;;;;;;5008718;28;20606;-72
2023/07/31 05:52:12;;;;;;;23.20;9.52;;;;;;;;;;5006453;28;20184;-73
2023/07/31 05:54:37;;;;;;;29.40;10.15;;;;;;;;;;5000919;28;20654;-71
2023/07/31 05:57:02;;;;;;;32.10;10.38;;;;;;;;;;4977518;28;20253;-73
2023/07/31 05:59:28;;;;;;;28.77;9.43;;;;;;;;;;5007213;28;20585;-71
2023/07/31 06:01:53;;;;;;;28.98;9.65;;;;;;;;;;5007449;28;20217;-71
2023/07/31 06:04:19;;;;;;;26.58;9.30;;;;;;;;;;5005258;28;20194;-71
2023/07/31 06:06:44;;;;;;;23.48;9.50;;;;;;;;;;4999353;28;20200;-71
2023/07/31 06:09:09;;;;;;;28.73;9.65;;;;;;;;;;4998315;28;20187;-76
2023/07/31 06:11:35;;;;;;;24.00;8.73;;;;;;;;;;4977191;28;20222;-72
2023/07/31 06:14:00;;;;;;;22.33;8.95;;;;;;;;;;5008382;28;20195;-72
2023/07/31 06:16:27;;;;;;;26.45;8.95;;;;;;;;;;5007193;28;20183;-75
2023/07/31 06:18:52;;;;;;;25.00;8.75;;;;;;;;;;5016348;28;20233;-78
2023/07/31 06:21:18;;;;;;;26.13;9.10;;;;;;;;;;5001980;28;21517;-73
2023/07/31 06:23:43;;;;;;;24.77;8.65;;;;;;;;;;4990198;28;20278;-71
2023/07/31 06:26:08;;;;;;;25.10;8.98;;;;;;;;;;5004077;28;20282;-70
2023/07/31 06:28:34;;;;;;;26.13;9.27;;;;;;;;;;5008903;28;20238;-75
2023/07/31 06:31:01;;;;;;;26.20;9.15;;;;;;;;;;4979102;28;20274;-73
2023/07/31 06:33:27;;;;;;;18.90;9.13;;;;;;;;;;5004657;28;20265;-73
2023/07/31 06:35:52;;;;;;;20.65;8.57;;;;;;;;;;5008778;28;20183;-75
2023/07/31 06:38:23;;;;;;;19.58;8.68;;;;;;;;;;5010411;28;20264;-72
2023/07/31 06:40:49;;;;;;;21.75;8.45;;;;;;;;;;5007920;28;20655;-71
2023/07/31 06:43:14;;;;;;;23.60;8.50;;;;;;;;;;5007988;28;20194;-72
2023/07/31 06:45:39;;;;;;;21.00;9.07;;;;;;;;;;5000455;28;20191;-75
2023/07/31 06:48:05;;;;;;;21.63;9.05;;;;;;;;;;5004029;28;20279;-74
2023/07/31 06:50:31;;;;;;;19.92;8.30;;;;;;;;;;5011375;28;20329;-73
2023/07/31 06:52:57;;;;;;;20.02;8.07;;;;;;;;;;5003245;28;20195;-73
2023/07/31 06:55:23;;;;;;;21.88;7.97;;;;;;;;;;4997743;28;20325;-73
2023/07/31 06:57:50;;;;;;;16.20;8.07;;;;;;;;;;5001893;28;20194;-73
2023/07/31 07:00:16;;;;;;;22.13;8.40;;;;;;;;;;5003770;28;20318;-74
2023/07/31 07:02:42;;;;;;;20.15;8.13;;;;;;;;;;5002109;28;20225;-71
2023/07/31 07:05:08;;;;;;;20.98;8.68;;;;;;;;;;4993994;28;20199;-70
2023/07/31 07:07:33;;;;;;;18.85;7.93;;;;;;;;;;5008876;28;20583;-70
2023/07/31 07:10:03;;;;;;;15.57;7.50;;;;;;;;;;5005082;28;20194;-72
2023/07/31 07:12:30;;;;;;;17.85;7.43;;;;;;;;;;4998339;28;20520;-73
2023/07/31 07:14:57;;;;;;;13.88;6.68;;;;;;;;;;5005081;28;20195;-72
2023/07/31 07:17:22;;;;;;;13.48;6.82;;;;;;;;;;5009842;28;20206;-71
2023/07/31 07:19:48;;;;;;;13.48;6.15;;;;;;;;;;5014536;28;20261;-74
2023/07/31 07:22:14;;;;;;;15.30;6.00;;;;;;;;;;5007773;28;20310;-74
2023/07/31 07:24:39;;;;;;;9.75;5.72;;;;;;;;;;5007377;28;20264;-73
2023/07/31 07:27:05;;;;;;;14.68;5.70;;;;;;;;;;5007314;28;20206;-70
2023/07/31 07:29:30;;;;;;;9.40;4.93;;;;;;;;;;4989958;28;20258;-72
2023/07/31 07:31:56;;;;;;;14.25;5.43;;;;;;;;;;5003200;28;20274;-75
2023/07/31 07:34:26;;;;;;;12.80;5.15;;;;;;;;;;5010161;28;20189;-74
2023/07/31 07:36:52;;;;;;;10.23;4.53;;;;;;;;;;5009833;28;20201;-72
2023/07/31 07:39:17;;;;;;;11.98;5.22;;;;;;;;;;5013186;28;20190;-72
2023/07/31 07:41:43;;;;;;;8.75;5.13;;;;;;;;;;5000693;28;20206;-72
2023/07/31 07:44:08;;;;;;;10.25;4.80;;;;;;;;;;5006421;28;20277;-71
2023/07/31 07:46:34;;;;;;;10.15;5.10;;;;;;;;;;5008273;28;20203;-74
2023/07/31 07:48:59;;;;;;;7.30;4.20;;;;;;;;;;5007754;28;20194;-73
2023/07/31 07:51:24;;;;;;;8.40;4.18;;;;;;;;;;5007374;28;20186;-71
2023/07/31 07:53:50;;;;;;;8.30;3.80;;;;;;;;;;5001865;28;20223;-71
2023/07/31 07:56:16;;;;;;;10.35;3.90;;;;;;;;;;4992216;28;20199;-73
2023/07/31 07:58:41;;;;;;;9.15;4.55;;;;;;;;;;5004825;28;20214;-72
2023/07/31 08:01:06;;;;;;;7.82;4.05;;;;;;;;;;4999035;28;20292;-72
2023/07/31 08:03:32;;;;;;;5.63;3.13;;;;;;;;;;5001637;28;21431;-72
2023/07/31 08:06:01;;;;;;;7.25;3.33;;;;;;;;;;5003258;28;20263;-74
2023/07/31 08:08:28;;;;;;;3.83;2.70;;;;;;;;;;4996038;28;20590;-72
2023/07/31 08:10:53;;;;;;;8.13;3.85;;;;;;;;;;5001313;28;20235;-75
2023/07/31 08:13:18;;;;;;;7.32;3.00;;;;;;;;;;4989904;28;20214;-71
2023/07/31 08:15:44;;;;;;;5.40;2.72;;;;;;;;;;4998752;28;20211;-72
2023/07/31 08:18:11;;;;;;;5.65;2.40;;;;;;;;;;5001874;28;20260;-74
2023/07/31 08:20:37;;;;;;;5.03;2.95;;;;;;;;;;4992397;28;20191;-71
2023/07/31 08:23:03;;;;;;;4.45;2.53;;;;;;;;;;5010442;28;20221;-71
2023/07/31 08:25:28;;;;;;;5.72;2.83;;;;;;;;;;4995023;28;20218;-74
2023/07/31 08:27:54;;;;;;;4.25;2.10;;;;;;;;;;5006241;28;20701;-71
2023/07/31 08:30:19;;;;;;;5.32;2.20;;;;;;;;;;4991972;28;20272;-72
2023/07/31 08:32:44;;;;;;;4.32;1.75;;;;;;;;;;5000344;28;20268;-77
2023/07/31 08:35:10;;;;;;;3.25;1.70;;;;;;;;;;4997713;28;20190;-72
2023/07/31 08:37:36;;;;;;;2.85;2.00;;;;;;;;;;4999833;28;20190;-74
2023/07/31 08:40:02;;;;;;;4.40;1.85;;;;;;;;;;5006677;28;20199;-72
2023/07/31 08:42:27;;;;;;;3.30;1.83;;;;;;;;;;5006917;28;20210;-72
2023/07/31 08:44:55;;;;;;;3.13;1.77;;;;;;;;;;5007956;28;20190;-71
2023/07/31 08:47:21;;;;;;;1.77;1.38;;;;;;;;;;5002391;28;20205;-76
2023/07/31 08:49:48;;;;;;;3.45;1.60;;;;;;;;;;4978460;28;20203;-76
2023/07/31 08:52:13;;;;;;;2.28;1.15;;;;;;;;;;4994116;28;20725;-74
2023/07/31 08:54:39;;;;;;;1.98;1.40;;;;;;;;;;5004190;28;20195;-75
2023/07/31 08:57:06;;;;;;;1.98;1.30;;;;;;;;;;4982074;28;20191;-75
2023/07/31 08:59:34;;;;;;;1.50;1.00;;;;;;;;;;4994172;28;20198;-74
2023/07/31 09:02:05;;;;;;;1.60;1.20;;;;;;;;;;5004884;28;20310;-81
2023/07/31 09:04:31;;;;;;;1.50;1.10;;;;;;;;;;5003185;28;20607;-75
2023/07/31 09:07:00;;;;;;;1.00;0.90;;;;;;;;;;4995666;28;20195;-79
2023/07/31 09:09:26;;;;;;;0.80;0.80;;;;;;;;;;5007652;28;20183;-72
2023/07/31 09:11:52;;;;;;;2.55;0.60;;;;;;;;;;4995752;28;20197;-73
2023/07/31 09:14:19;;;;;;;2.00;0.85;;;;;;;;;;4993392;28;20215;-72
2023/07/31 09:16:59;;;;;;;0.93;0.60;;;;;;;;;;5000035;28;20644;-73
2023/07/31 09:19:38;;;;;;;1.33;0.68;;;;;;;;;;5003405;28;20191;-74
2023/07/31 09:22:06;;;;;;;2.38;0.90;;;;;;;;;;5009547;28;20225;-74
2023/07/31 09:24:33;;;;;;;0.77;0.70;;;;;;;;;;4996813;28;20214;-74
2023/07/31 09:27:01;;;;;;;1.38;0.80;;;;;;;;;;5003816;28;20183;-74
2023/07/31 09:29:28;;;;;;;1.00;0.88;;;;;;;;;;5007957;28;20243;-74
2023/07/31 09:31:54;;;;;;;0.80;0.80;;;;;;;;;;5005862;28;20186;-73
2023/07/31 09:34:27;;;;;;;0.80;0.80;;;;;;;;;;5009609;28;20195;-72
2023/07/31 09:36:53;;;;;;;1.00;0.80;;;;;;;;;;5003577;28;20190;-72
2023/07/31 09:39:20;;;;;;;1.85;1.25;;;;;;;;;;5010133;28;20197;-75
2023/07/31 09:41:54;;;;;;;1.20;1.10;;;;;;;;;;4995390;28;20306;-74
2023/07/31 09:44:20;;;;;;;1.20;0.90;;;;;;;;;;5003675;28;20190;-73
2023/07/31 09:46:45;;;;;;;1.27;1.17;;;;;;;;;;4995573;28;20244;-74
2023/07/31 09:49:13;;;;;;;0.93;0.93;;;;;;;;;;5005379;28;20664;-74
2023/07/31 09:51:40;;;;;;;1.92;1.20;;;;;;;;;;5007116;28;20190;-73
2023/07/31 09:54:16;;;;;;;1.42;1.25;;;;;;;;;;5009508;28;20198;-76
2023/07/31 09:56:46;;;;;;;1.33;1.23;;;;;;;;;;5002996;28;20202;-72
2023/07/31 09:59:15;;;;;;;1.20;1.10;;;;;;;;;;4998032;28;20188;-72
2023/07/31 10:01:41;;;;;;;1.33;1.17;;;;;;;;;;4978620;28;20223;-73
2023/07/31 10:04:09;;;;;;;1.40;1.30;;;;;;;;;;4980019;28;20225;-74
2023/07/31 10:06:36;;;;;;;1.60;1.50;;;;;;;;;;4999676;28;20498;-72
2023/07/31 10:09:11;;;;;;;2.53;1.33;;;;;;;;;;4999823;28;20183;-74
2023/07/31 10:11:51;;;;;;;1.67;1.58;;;;;;;;;;5002795;28;20551;-72
2023/07/31 10:14:21;;;;;;;1.80;1.70;;;;;;;;;;4995131;28;20195;-74
2023/07/31 10:16:47;;;;;;;2.03;1.92;;;;;;;;;;4992077;28;20211;-76
2023/07/31 10:19:12;;;;;;;1.70;1.60;;;;;;;;;;5004495;28;20234;-76
2023/07/31 10:21:38;;;;;;;2.28;2.05;;;;;;;;;;4993794;28;20211;-76
2023/07/31 10:24:04;;;;;;;1.92;1.73;;;;;;;;;;4992954;28;20214;-72
2023/07/31 10:26:32;;;;;;;2.17;1.75;;;;;;;;;;5014329;28;20205;-75
2023/07/31 10:28:58;;;;;;;1.60;1.50;;;;;;;;;;4973452;28;20703;-72
2023/07/31 10:31:24;;;;;;;2.30;1.70;;;;;;;;;;5004896;28;20193;-76
2023/07/31 10:33:51;;;;;;;2.35;2.15;;;;;;;;;;4986986;28;20198;-76
2023/07/31 10:36:20;;;;;;;2.60;2.05;;;;;;;;;;5011180;28;20252;-73
2023/07/31 10:38:48;;;;;;;4.57;2.10;;;;;;;;;;5002489;28;20654;-76
2023/07/31 10:41:14;;;;;;;3.25;2.30;;;;;;;;;;5001868;28;20222;-73
2023/07/31 10:43:40;;;;;;;3.65;2.17;;;;;;;;;;5005250;28;20207;-75
2023/07/31 10:46:11;;;;;;;2.50;2.30;;;;;;;;;;5009095;28;20183;-72
2023/07/31 10:48:41;;;;;;;3.83;2.28;;;;;;;;;;5003230;28;20221;-76
2023/07/31 10:51:15;;;;;;;2.58;2.38;;;;;;;;;;5002768;28;20678;-72
2023/07/31 10:53:43;;;;;;;2.75;2.17;;;;;;;;;;4987043;28;20240;-70
2023/07/31 10:56:10;;;;;;;2.72;2.53;;;;;;;;;;5003948;28;20199;-72
2023/07/31 10:58:37;;;;;;;3.47;2.78;;;;;;;;;;5005216;28;20203;-72
2023/07/31 11:01:05;;;;;;;3.10;2.90;;;;;;;;;;4981531;28;20201;-73
2023/07/31 11:03:52;;;;;;;3.58;3.05;;;;;;;;;;4998030;28;20210;-74
2023/07/31 11:06:18;;;;;;;3.50;3.20;;;;;;;;;;4986802;28;20179;-76
2023/07/31 11:08:45;;;;;;;4.15;3.30;;;;;;;;;;4989833;28;20281;-77
2023/07/31 11:11:14;;;;;;;3.83;3.45;;;;;;;;;;5007447;28;20187;-73
2023/07/31 11:13:51;;;;;;;5.25;4.50;;;;;;;;;;4994380;28;20191;-75
2023/07/31 11:16:19;;;;;;;5.25;4.75;;;;;;;;;;4996170;28;20183;-72
2023/07/31 11:18:47;;;;;;;5.30;4.72;;;;;;;;;;4993755;28;20230;-74
2023/07/31 11:21:16;;;;;;;6.95;5.35;;;;;;;;;;5000799;28;20596;-71
2023/07/31 11:23:46;;;;;;;5.78;4.78;;;;;;;;;;5007395;28;20280;-71
2023/07/31 11:26:12;;;;;;;7.18;6.43;;;;;;;;;;5005666;28;20189;-71
2023/07/31 11:28:38;;;;;;;6.80;5.72;;;;;;;;;;5002821;28;20230;-75
2023/07/31 11:31:04;;;;;;;6.03;5.47;;;;;;;;;;4989328;28;20183;-75
2023/07/31 11:33:29;;;;;;;8.10;6.03;;;;;;;;;;5013422;28;20191;-71
2023/07/31 11:35:55;;;;;;;6.90;6.20;;;;;;;;;;4992186;28;20272;-74
2023/07/31 11:38:24;;;;;;;8.50;6.63;;;;;;;;;;5011253;28;20199;-74
2023/07/31 11:40:49;;;;;;;9.60;6.72;;;;;;;;;;5004284;28;20198;-75
2023/07/31 11:43:17;;;;;;;9.40;7.03;;;;;;;;;;5009587;28;20221;-72
2023/07/31 11:45:48;;;;;;;9.27;7.63;;;;;;;;;;5002633;28;20192;-77
2023/07/31 11:48:29;;;;;;;8.88;7.97;;;;;;;;;;5004454;28;20235;-73
2023/07/31 11:50:58;;;;;;;9.55;7.70;;;;;;;;;;5010435;28;20198;-76
2023/07/31 11:53:30;;;;;;;10.48;8.27;;;;;;;;;;5005318;28;20218;-75
2023/07/31 11:56:00;;;;;;;10.02;8.52;;;;;;;;;;5010031;28;20192;-71
2023/07/31 11:58:27;;;;;;;10.77;9.20;;;;;;;;;;5001664;28;20194;-73
2023/07/31 12:00:52;;;;;;;11.65;8.93;;;;;;;;;;4991910;28;20400;-73
2023/07/31 12:03:18;;;;;;;12.35;9.50;;;;;;;;;;4994120;28;20215;-73
2023/07/31 12:05:44;;;;;;;10.88;9.55;;;;;;;;;;5007961;28;20621;-75
2023/07/31 12:08:13;;;;;;;14.15;9.73;;;;;;;;;;5000992;28;20681;-72
2023/07/31 12:10:40;;;;;;;14.95;10.02;;;;;;;;;;4991960;28;20191;-74
2023/07/31 12:13:10;;;;;;;10.65;9.50;;;;;;;;;;5005768;28;20182;-75
2023/07/31 12:15:45;;;;;;;12.90;9.63;;;;;;;;;;5001776;28;20817;-74
2023/07/31 12:18:13;;;;;;;12.48;10.38;;;;;;;;;;4987624;28;20681;-73
2023/07/31 12:20:44;;;;;;;11.85;9.20;;;;;;;;;;4999524;28;20587;-74
2023/07/31 12:23:27;;;;;;;12.98;10.50;;;;;;;;;;5002510;28;20245;-71
2023/07/31 12:26:00;;;;;;;10.85;9.27;;;;;;;;;;5004557;28;20573;-73
2023/07/31 12:28:25;;;;;;;10.40;9.25;;;;;;;;;;4997499;28;20288;-72
2023/07/31 12:30:51;;;;;;;12.32;9.23;;;;;;;;;;4996774;28;20566;-72
2023/07/31 12:33:18;;;;;;;10.43;8.25;;;;;;;;;;4998251;28;20222;-75
2023/07/31 12:35:46;;;;;;;8.65;7.50;;;;;;;;;;4981221;28;20187;-72
2023/07/31 12:38:13;;;;;;;8.35;7.55;;;;;;;;;;5000717;28;20191;-74
2023/07/31 12:40:39;;;;;;;7.40;6.70;;;;;;;;;;4999941;28;20565;-72
2023/07/31 12:43:05;;;;;;;8.45;7.60;;;;;;;;;;5005990;28;20203;-72
2023/07/31 12:45:31;;;;;;;8.10;7.30;;;;;;;;;;5010919;28;20285;-73
2023/07/31 12:47:57;;;;;;;13.13;7.18;;;;;;;;;;5007767;28;20190;-73
2023/07/31 12:50:23;;;;;;;9.98;7.18;;;;;;;;;;5005046;28;20269;-73
2023/07/31 12:52:49;;;;;;;9.40;7.10;;;;;;;;;;5008924;28;20273;-73
2023/07/31 12:55:14;;;;;;;7.03;6.22;;;;;;;;;;5015580;28;20313;-73
2023/07/31 12:57:41;;;;;;;7.25;6.55;;;;;;;;;;5002746;28;20191;-72
2023/07/31 13:00:07;;;;;;;8.40;7.15;;;;;;;;;;5004984;28;20590;-72
2023/07/31 13:02:33;;;;;;;10.90;7.95;;;;;;;;;;5002329;28;20218;-73
2023/07/31 13:04:58;;;;;;;8.27;7.22;;;;;;;;;;5007869;28;20194;-73
2023/07/31 13:07:23;;;;;;;9.60;8.18;;;;;;;;;;5000716;28;20278;-72
2023/07/31 13:09:49;;;;;;;11.02;7.72;;;;;;;;;;4999276;28;20647;-76
2023/07/31 13:12:14;;;;;;;10.07;7.72;;;;;;;;;;4990045;28;20201;-73
2023/07/31 13:14:39;;;;;;;9.50;8.30;;;;;;;;;;4995887;28;20340;-75
2023/07/31 13:17:05;;;;;;;10.45;8.98;;;;;;;;;;5018449;28;20219;-73
2023/07/31 13:19:30;;;;;;;10.68;9.48;;;;;;;;;;5009808;28;20191;-72
2023/07/31 13:21:56;;;;;;;12.27;9.38;;;;;;;;;;5006332;28;20245;-74
2023/07/31 13:24:21;;;;;;;9.90;8.77;;;;;;;;;;5010032;28;20191;-77
2023/07/31 13:26:46;;;;;;;12.57;9.05;;;;;;;;;;5008587;28;20207;-73
2023/07/31 13:29:12;;;;;;;12.18;9.13;;;;;;;;;;5010781;28;20230;-73
2023/07/31 13:31:37;;;;;;;12.10;9.38;;;;;;;;;;5002560;28;20187;-74
2023/07/31 13:34:03;;;;;;;10.38;8.93;;;;;;;;;;5004915;28;20544;-73
2023/07/31 13:36:28;;;;;;;10.65;8.13;;;;;;;;;;4996471;28;20188;-74
2023/07/31 13:38:53;;;;;;;10.63;8.40;;;;;;;;;;5006800;28;20222;-74
2023/07/31 13:41:19;;;;;;;10.18;8.77;;;;;;;;;;5009317;28;20655;-73
2023/07/31 13:43:44;;;;;;;8.90;7.78;;;;;;;;;;5012579;28;20314;-74
2023/07/31 13:46:10;;;;;;;10.55;7.70;;;;;;;;;;5012175;28;20198;-76
2023/07/31 13:48:36;;;;;;;9.15;7.72;;;;;;;;;;5012079;28;20191;-74
2023/07/31 13:51:02;;;;;;;10.20;7.70;;;;;;;;;;5007243;28;20252;-74
2023/07/31 13:53:27;;;;;;;10.02;7.82;;;;;;;;;;5004145;28;20249;-72
2023/07/31 13:55:52;;;;;;;12.00;7.25;;;;;;;;;;4990702;28;20192;-73
2023/07/31 13:58:18;;;;;;;10.07;6.72;;;;;;;;;;5005980;28;20194;-74
2023/07/31 14:00:43;;;;;;;9.30;6.55;;;;;;;;;;5005813;28;20227;-73
2023/07/31 14:03:09;;;;;;;7.05;6.28;;;;;;;;;;5000730;28;21247;-73
2023/07/31 14:05:35;;;;;;;7.72;6.55;;;;;;;;;;4990322;28;20237;-75
2023/07/31 14:08:00;;;;;;;8.02;5.97;;;;;;;;;;5013350;28;20545;-74
2023/07/31 14:10:26;;;;;;;8.07;6.07;;;;;;;;;;5017102;28;20195;-73
2023/07/31 14:12:51;;;;;;;9.50;6.22;;;;;;;;;;5002948;28;20212;-73
2023/07/31 14:15:16;;;;;;;7.93;6.13;;;;;;;;;;4998172;28;20246;-73
2023/07/31 14:17:42;;;;;;;10.98;6.40;;;;;;;;;;4992055;28;20216;-72
2023/07/31 14:20:08;;;;;;;7.43;5.88;;;;;;;;;;4982217;28;20294;-73
2023/07/31 14:22:33;;;;;;;7.60;6.78;;;;;;;;;;5008919;28;20215;-74
2023/07/31 14:24:59;;;;;;;7.20;5.82;;;;;;;;;;5000768;28;20191;-74
2023/07/31 14:27:25;;;;;;;7.65;6.00;;;;;;;;;;4999036;28;20280;-73
2023/07/31 14:29:51;;;;;;;8.30;6.45;;;;;;;;;;4995975;28;20604;-73
2023/07/31 14:32:16;;;;;;;9.18;6.43;;;;;;;;;;4987210;28;20197;-73